Time;durP1;ratioP1;P1;durP2;ratioP2;P2;SDS_P1;SDS_P2;PMS_P1;PMS_P2;Temp;Humidity;BMP_temperature;BMP_pressure;BME280_temperature;BME280_humidity;BME280_pressure;Samples;Min_cycle;Max_cycle;Signal;HPM_P1;HPM_P2
2020/12/30 00:01:23;;;;;;;49.60;27.60;;;;;;;2.83;100.00;100083.31;1771535;80;21502;-71
2020/12/30 00:03:52;;;;;;;45.90;26.40;;;;;;;2.84;100.00;100090.14;1789856;79;21628;-70
2020/12/30 00:06:20;;;;;;;42.67;25.77;;;;;;;2.84;100.00;100087.13;1791780;79;22143;-70
2020/12/30 00:08:48;;;;;;;43.30;25.75;;;;;;;2.83;100.00;100085.44;1760440;80;20946;-71
2020/12/30 00:11:17;;;;;;;47.78;27.05;;;;;;;2.81;100.00;100088.48;1757562;80;21480;-71
2020/12/30 00:13:45;;;;;;;44.63;26.05;;;;;;;2.82;100.00;100095.77;1769145;80;21562;-71
2020/12/30 00:16:14;;;;;;;41.88;25.30;;;;;;;2.81;100.00;100096.20;1769449;80;21551;-71
2020/12/30 00:18:42;;;;;;;43.87;27.67;;;;;;;2.82;100.00;100096.61;1754972;80;22161;-71
2020/12/30 00:21:10;;;;;;;41.53;25.50;;;;;;;2.82;100.00;100102.19;1768371;80;21595;-71
2020/12/30 00:23:39;;;;;;;45.03;26.33;;;;;;;2.82;100.00;100100.91;1764559;80;21568;-71
2020/12/30 00:26:08;;;;;;;40.38;25.82;;;;;;;2.82;100.00;100112.48;1772612;80;21468;-71
2020/12/30 00:28:37;;;;;;;44.48;25.90;;;;;;;2.82;100.00;100112.03;1775183;80;21499;-71
2020/12/30 00:31:06;;;;;;;43.65;25.82;;;;;;;2.82;100.00;100106.05;1774220;80;22040;-71
2020/12/30 00:33:34;;;;;;;42.27;24.82;;;;;;;2.82;100.00;100103.48;1764666;80;21568;-71
2020/12/30 00:36:03;;;;;;;42.45;26.25;;;;;;;2.83;100.00;100111.59;1770159;80;21610;-71
2020/12/30 00:38:31;;;;;;;41.28;25.20;;;;;;;2.84;100.00;100112.00;1769062;80;21029;-71
2020/12/30 00:41:00;;;;;;;40.67;26.00;;;;;;;2.83;100.00;100113.73;1764526;80;21491;-71
2020/12/30 00:43:28;;;;;;;41.50;25.95;;;;;;;2.82;100.00;100114.61;1774515;80;21404;-71
2020/12/30 00:45:57;;;;;;;40.75;25.15;;;;;;;2.82;100.00;100111.19;1775036;80;21515;-71
2020/12/30 00:48:25;;;;;;;43.90;25.08;;;;;;;2.84;100.00;100109.43;1765536;80;21623;-71
2020/12/30 00:50:54;;;;;;;39.98;25.00;;;;;;;2.84;100.00;100113.29;1774241;80;21737;-71
2020/12/30 00:53:22;;;;;;;37.15;25.30;;;;;;;2.81;100.00;100107.77;1758717;80;21619;-71
2020/12/30 00:55:51;;;;;;;37.58;24.25;;;;;;;2.80;100.00;100107.84;1763649;80;22093;-71
2020/12/30 00:58:22;;;;;;;37.83;25.68;;;;;;;2.81;100.00;100110.78;1764401;80;21590;-72
2020/12/30 01:00:51;;;;;;;36.65;23.05;;;;;;;2.81;100.00;100114.20;1762784;80;21472;-72
2020/12/30 01:03:29;;;;;;;40.70;24.23;;;;;;;2.82;100.00;100109.47;1746319;80;20958;-72
2020/12/30 01:05:58;;;;;;;38.63;23.25;;;;;;;2.82;100.00;100103.48;1758709;80;20934;-72
2020/12/30 01:08:26;;;;;;;37.55;21.07;;;;;;;2.81;100.00;100105.20;1768523;80;21130;-73
2020/12/30 01:10:56;;;;;;;33.35;22.67;;;;;;;2.80;100.00;100107.84;1782273;79;21077;-72
2020/12/30 01:13:24;;;;;;;38.80;24.10;;;;;;;2.79;100.00;100103.14;1774857;80;21041;-72
2020/12/30 01:15:53;;;;;;;34.10;23.98;;;;;;;2.78;100.00;100102.73;1768844;80;21068;-72
2020/12/30 01:18:22;;;;;;;33.95;22.70;;;;;;;2.79;100.00;100098.00;1762427;80;20951;-73
2020/12/30 01:20:50;;;;;;;25.85;18.30;;;;;;;2.81;100.00;100103.08;1759155;80;21197;-72
2020/12/30 01:23:18;;;;;;;30.75;21.62;;;;;;;2.80;100.00;100100.94;1774101;81;21498;-73
2020/12/30 01:25:56;;;;;;;30.85;20.05;;;;;;;2.77;100.00;100094.62;1768089;80;21073;-72
2020/12/30 01:28:24;;;;;;;29.15;19.52;;;;;;;2.76;100.00;100094.20;1775901;80;21038;-73
2020/12/30 01:30:53;;;;;;;24.72;18.98;;;;;;;2.75;100.00;100093.80;1762423;80;21570;-73
2020/12/30 01:33:21;;;;;;;29.05;19.82;;;;;;;2.73;100.00;100098.58;1765386;80;21430;-72
2020/12/30 01:35:49;;;;;;;31.65;20.10;;;;;;;2.70;100.00;100101.22;1767722;80;20949;-72
2020/12/30 01:38:17;;;;;;;30.45;19.30;;;;;;;2.67;100.00;100100.41;1769137;80;20954;-72
2020/12/30 01:40:46;;;;;;;34.45;18.55;;;;;;;2.66;100.00;100119.72;1774109;80;20998;-72
2020/12/30 01:43:15;;;;;;;25.05;18.12;;;;;;;2.63;100.00;100118.06;1774883;80;21722;-72
2020/12/30 01:45:45;;;;;;;28.35;18.52;;;;;;;2.61;100.00;100127.53;1774741;80;21061;-72
2020/12/30 01:48:18;;;;;;;21.73;17.40;;;;;;;2.60;100.00;100126.28;1774021;80;21579;-72
2020/12/30 01:50:46;;;;;;;29.23;18.35;;;;;;;2.59;100.00;100119.01;1771311;80;20946;-73
2020/12/30 01:53:14;;;;;;;31.50;18.65;;;;;;;2.56;100.00;100118.22;1791649;79;20990;-73
2020/12/30 01:55:43;;;;;;;27.35;19.45;;;;;;;2.55;100.00;100126.81;1763262;80;21018;-73
2020/12/30 01:58:11;;;;;;;30.12;18.25;;;;;;;2.55;100.00;100128.10;1768670;80;21137;-73
2020/12/30 02:00:41;;;;;;;30.77;18.02;;;;;;;2.56;100.00;100126.78;1774716;80;21614;-72
2020/12/30 02:03:09;;;;;;;26.80;18.85;;;;;;;2.56;100.00;100133.20;1768633;80;21504;-72
2020/12/30 02:05:37;;;;;;;23.65;18.57;;;;;;;2.56;100.00;100128.06;1763293;80;21125;-72
2020/12/30 02:08:06;;;;;;;26.60;18.95;;;;;;;2.57;100.00;100123.77;1763592;80;20978;-72
2020/12/30 02:10:34;;;;;;;22.40;17.35;;;;;;;2.59;100.00;100129.73;1760155;80;21263;-73
2020/12/30 02:13:02;;;;;;;27.60;18.20;;;;;;;2.58;100.00;100133.17;1768218;80;21156;-73
2020/12/30 02:15:33;;;;;;;20.55;15.35;;;;;;;2.56;100.00;100142.64;1764401;80;21065;-73
2020/12/30 02:18:01;;;;;;;31.05;19.50;;;;;;;2.57;100.00;100146.47;1764071;80;20982;-73
2020/12/30 02:20:34;;;;;;;23.90;18.73;;;;;;;2.59;100.00;100152.42;1768772;80;21093;-73
2020/12/30 02:23:05;;;;;;;32.20;18.65;;;;;;;2.61;100.00;100158.81;1769852;80;21220;-73
2020/12/30 02:25:33;;;;;;;32.23;20.08;;;;;;;2.65;100.00;100164.30;1774254;80;21057;-72
2020/12/30 02:28:02;;;;;;;27.27;19.80;;;;;;;2.68;100.00;100160.38;1761468;80;20973;-72
2020/12/30 02:30:30;;;;;;;29.35;19.92;;;;;;;2.72;100.00;100158.59;1772753;80;20934;-72
2020/12/30 02:33:00;;;;;;;27.90;19.00;;;;;;;2.77;100.00;100151.63;1771743;80;20934;-72
2020/12/30 02:35:29;;;;;;;27.50;20.17;;;;;;;2.80;100.00;100142.08;1769633;80;22157;-72
2020/12/30 02:37:57;;;;;;;33.45;24.25;;;;;;;2.83;100.00;100151.02;1759404;80;21005;-73
2020/12/30 02:40:27;;;;;;;31.30;20.88;;;;;;;2.83;100.00;100145.87;1800990;77;21022;-72
2020/12/30 02:42:55;;;;;;;27.25;19.52;;;;;;;2.86;100.00;100139.81;1762827;80;21168;-73
2020/12/30 02:45:24;;;;;;;26.25;19.42;;;;;;;2.88;100.00;100141.91;1774072;80;21088;-72
2020/12/30 02:47:52;;;;;;;26.65;19.20;;;;;;;2.90;100.00;100142.72;1768419;80;21201;-72
2020/12/30 02:50:22;;;;;;;27.32;18.85;;;;;;;2.91;100.00;100140.56;1757363;80;21174;-72
2020/12/30 02:52:50;;;;;;;26.37;19.85;;;;;;;2.92;100.00;100149.97;1764220;80;20934;-72
2020/12/30 02:55:18;;;;;;;27.37;19.65;;;;;;;2.93;100.00;100146.52;1768601;80;21042;-72
2020/12/30 02:57:47;;;;;;;29.63;20.82;;;;;;;2.96;100.00;100142.59;1773964;81;21045;-72
2020/12/30 03:00:15;;;;;;;82.27;50.73;;;;;;;2.98;100.00;100136.53;1774029;80;22075;-72
2020/12/30 03:02:43;;;;;;;43.83;30.60;;;;;;;3.00;100.00;100146.34;1764935;80;21471;-72
2020/12/30 03:05:12;;;;;;;28.52;20.55;;;;;;;3.01;100.00;100140.31;1769236;80;21520;-72
2020/12/30 03:07:40;;;;;;;28.92;20.97;;;;;;;3.02;100.00;100141.16;1768503;80;20942;-72
2020/12/30 03:10:08;;;;;;;40.98;30.00;;;;;;;3.04;100.00;100143.70;1759831;80;20937;-72
2020/12/30 03:12:37;;;;;;;53.98;37.67;;;;;;;3.03;100.00;100144.14;1802923;79;21380;-72
2020/12/30 03:15:06;;;;;;;154.78;92.27;;;;;;;3.04;100.00;100144.55;1777946;79;21045;-72
2020/12/30 03:17:35;;;;;;;44.98;29.45;;;;;;;3.04;100.00;100132.97;1786266;78;20938;-70
2020/12/30 03:20:04;;;;;;;28.73;20.32;;;;;;;3.07;100.00;100126.91;1803556;79;21487;-70
2020/12/30 03:22:32;;;;;;;29.60;19.17;;;;;;;3.07;100.00;100123.89;1786512;78;21483;-70
2020/12/30 03:25:00;;;;;;;28.52;19.12;;;;;;;3.06;100.00;100123.48;1802353;78;21178;-70
2020/12/30 03:27:29;;;;;;;24.25;17.20;;;;;;;3.05;100.00;100123.08;1763485;78;21476;-70
2020/12/30 03:29:57;;;;;;;28.05;18.90;;;;;;;3.04;100.00;100120.11;1780817;80;21211;-71
2020/12/30 03:32:26;;;;;;;29.98;19.67;;;;;;;3.01;100.00;100122.75;1771351;80;21371;-70
2020/12/30 03:34:55;;;;;;;32.17;20.02;;;;;;;3.00;100.00;100112.05;1781542;79;21619;-71
2020/12/30 03:37:23;;;;;;;31.60;18.62;;;;;;;2.99;100.00;100107.35;1780623;79;21192;-71
2020/12/30 03:39:51;;;;;;;29.00;19.42;;;;;;;2.98;100.00;100113.38;1759182;80;21002;-71
2020/12/30 03:42:21;;;;;;;30.57;20.80;;;;;;;2.97;100.00;100107.83;1767816;80;21068;-71
2020/12/30 03:44:50;;;;;;;32.23;17.67;;;;;;;2.96;100.00;100115.14;1773884;80;21168;-71
2020/12/30 03:47:18;;;;;;;34.30;21.97;;;;;;;2.96;100.00;100116.87;1769425;80;21160;-71
2020/12/30 03:49:48;;;;;;;30.77;20.77;;;;;;;2.96;100.00;100124.58;1774663;80;21190;-71
2020/12/30 03:52:17;;;;;;;32.60;21.45;;;;;;;2.96;100.00;100135.72;1773941;80;21464;-72
2020/12/30 03:54:45;;;;;;;33.25;22.85;;;;;;;2.94;100.00;100132.34;1774720;80;21120;-71
2020/12/30 03:57:14;;;;;;;31.33;21.77;;;;;;;2.92;100.00;100128.95;1764406;80;20955;-72
2020/12/30 03:59:44;;;;;;;32.25;21.37;;;;;;;2.91;100.00;100129.83;1770306;80;21484;-72
2020/12/30 04:02:12;;;;;;;32.50;22.02;;;;;;;2.90;100.00;100133.72;1774494;80;21733;-71
2020/12/30 04:04:40;;;;;;;30.10;19.80;;;;;;;2.91;100.00;100130.27;1774331;80;21361;-72
2020/12/30 04:07:08;;;;;;;31.85;20.70;;;;;;;2.91;100.00;100134.98;1762352;80;20931;-72
2020/12/30 04:09:38;;;;;;;35.15;22.75;;;;;;;2.90;100.00;100144.86;1769293;80;20895;-72
2020/12/30 04:12:06;;;;;;;32.80;20.97;;;;;;;2.87;100.00;100145.36;1768938;80;21117;-72
2020/12/30 04:14:35;;;;;;;35.98;22.02;;;;;;;2.86;100.00;100150.10;1773900;81;21244;-72
2020/12/30 04:17:03;;;;;;;32.85;21.62;;;;;;;2.84;100.00;100150.58;1769535;80;21070;-72
2020/12/30 04:19:31;;;;;;;32.35;21.50;;;;;;;2.83;100.00;100159.17;1766111;80;21670;-72
2020/12/30 04:22:00;;;;;;;32.25;22.55;;;;;;;2.82;100.00;100163.91;1766584;80;21008;-73
2020/12/30 04:24:28;;;;;;;35.88;24.05;;;;;;;2.79;100.00;100157.14;1774758;80;20950;-72
2020/12/30 04:26:56;;;;;;;59.10;34.95;;;;;;;2.76;99.94;100157.20;1774321;80;21363;-73
2020/12/30 04:29:24;;;;;;;59.88;36.83;;;;;;;2.76;100.00;100158.93;1763189;80;21006;-72
2020/12/30 04:31:53;;;;;;;56.48;34.90;;;;;;;2.75;99.86;100169.66;1766116;80;21030;-73
2020/12/30 04:34:21;;;;;;;32.45;22.65;;;;;;;2.72;99.81;100168.44;1771209;80;21052;-72
2020/12/30 04:36:49;;;;;;;40.45;27.35;;;;;;;2.72;99.75;100171.45;1773911;80;21018;-72
2020/12/30 04:39:17;;;;;;;35.88;22.42;;;;;;;2.70;99.75;100165.48;1769303;80;21399;-73
2020/12/30 04:41:45;;;;;;;35.83;24.23;;;;;;;2.71;100.00;100160.31;1762734;80;20966;-72
2020/12/30 04:44:16;;;;;;;37.05;24.35;;;;;;;2.73;100.00;100158.55;1769294;80;21539;-73
2020/12/30 04:46:45;;;;;;;35.05;24.63;;;;;;;2.78;100.00;100154.60;1758579;80;21030;-73
2020/12/30 04:49:13;;;;;;;41.65;27.48;;;;;;;2.85;100.00;100157.41;1771909;80;21147;-72
2020/12/30 04:51:41;;;;;;;62.03;36.98;;;;;;;2.89;100.00;100155.17;1774278;80;22083;-72
2020/12/30 04:54:10;;;;;;;52.55;34.60;;;;;;;2.90;100.00;100155.59;1775243;80;21587;-73
2020/12/30 04:56:44;;;;;;;39.70;26.60;;;;;;;2.94;100.00;100152.06;1770032;80;21089;-73
2020/12/30 04:59:12;;;;;;;43.70;29.82;;;;;;;2.99;100.00;100160.52;1774801;80;21037;-72
2020/12/30 05:01:55;;;;;;;42.90;29.77;;;;;;;3.01;99.97;100160.89;1774976;80;21495;-72
2020/12/30 05:04:30;;;;;;;38.48;26.65;;;;;;;3.10;100.00;100175.72;1811079;77;22581;-72
2020/12/30 05:07:10;;;;;;;39.78;26.52;;;;;;;3.08;99.75;100176.19;1802894;79;20941;-72
2020/12/30 05:09:43;;;;;;;37.40;24.82;;;;;;;3.10;99.72;100171.42;1802799;79;21192;-72
2020/12/30 05:12:13;;;;;;;40.03;28.17;;;;;;;3.12;99.45;100180.39;1802704;78;21051;-72
2020/12/30 05:14:42;;;;;;;47.20;30.88;;;;;;;3.09;99.27;100185.16;1802755;79;20993;-72
2020/12/30 05:17:12;;;;;;;47.17;29.15;;;;;;;3.12;99.40;100181.67;1802831;79;21479;-72
2020/12/30 05:19:42;;;;;;;42.38;28.50;;;;;;;3.16;99.54;100188.00;1802769;79;20977;-71
2020/12/30 05:22:19;;;;;;;47.55;29.07;;;;;;;3.21;99.22;100189.99;1802880;79;22143;-71
2020/12/30 05:24:48;;;;;;;37.88;24.43;;;;;;;3.22;98.94;100193.41;1802713;79;20945;-72
2020/12/30 05:27:17;;;;;;;33.80;21.62;;;;;;;3.22;98.47;100191.69;1802733;79;20897;-72
2020/12/30 05:29:52;;;;;;;34.67;22.80;;;;;;;3.19;97.80;100193.52;1782744;79;20957;-72
2020/12/30 05:32:20;;;;;;;33.42;21.85;;;;;;;3.10;97.32;100193.28;1802815;79;20938;-72
2020/12/30 05:34:50;;;;;;;32.08;21.10;;;;;;;3.03;97.12;100190.88;1802738;78;21185;-71
2020/12/30 05:37:18;;;;;;;34.85;22.37;;;;;;;2.93;97.15;100192.37;1802700;78;21499;-72
2020/12/30 05:39:46;;;;;;;34.55;22.50;;;;;;;2.86;97.03;100199.81;1757435;79;21044;-71
2020/12/30 05:42:19;;;;;;;37.40;22.27;;;;;;;2.80;97.08;100199.94;1802736;79;20977;-72
2020/12/30 05:44:49;;;;;;;36.23;22.67;;;;;;;2.76;97.24;100199.63;1802743;79;20933;-72
2020/12/30 05:47:24;;;;;;;34.98;24.23;;;;;;;2.72;97.10;100197.16;1802668;79;21362;-72
2020/12/30 05:49:55;;;;;;;43.90;28.00;;;;;;;2.67;97.10;100199.83;1802899;79;21005;-72
2020/12/30 05:52:26;;;;;;;44.75;30.60;;;;;;;2.63;97.35;100202.05;1802809;79;21495;-72
2020/12/30 05:54:57;;;;;;;43.60;27.98;;;;;;;2.62;97.59;100197.78;1802583;79;21561;-68
2020/12/30 05:57:31;;;;;;;45.08;28.60;;;;;;;2.61;97.63;100199.51;1802319;78;21044;-71
2020/12/30 06:00:12;;;;;;;48.23;27.27;;;;;;;2.60;97.77;100199.54;1802718;78;21189;-71
2020/12/30 06:02:43;;;;;;;31.80;20.30;;;;;;;2.58;97.87;100189.73;1825054;77;21054;-72
2020/12/30 06:05:19;;;;;;;34.80;20.90;;;;;;;2.58;98.05;100194.43;1806001;77;21332;-72
2020/12/30 06:07:50;;;;;;;34.75;23.92;;;;;;;2.58;98.19;100197.44;1801015;78;20970;-69
2020/12/30 06:10:21;;;;;;;35.28;21.23;;;;;;;2.55;98.34;100202.20;1798699;77;20971;-69
2020/12/30 06:12:58;;;;;;;35.80;23.35;;;;;;;2.53;98.45;100200.10;1805043;78;21356;-77
2020/12/30 06:15:28;;;;;;;29.67;19.42;;;;;;;2.51;98.66;100195.87;1802728;77;22116;-70
2020/12/30 06:18:07;;;;;;;29.98;20.52;;;;;;;2.51;98.95;100183.02;1798902;77;21616;-70
2020/12/30 06:20:40;;;;;;;30.55;18.77;;;;;;;2.51;99.05;100184.30;1801989;78;21043;-77
2020/12/30 06:23:13;;;;;;;30.27;19.15;;;;;;;2.48;99.13;100184.36;1796976;78;21038;-73
2020/12/30 06:25:43;;;;;;;31.97;20.32;;;;;;;2.45;99.29;100190.84;1812710;78;21145;-70
2020/12/30 06:28:17;;;;;;;35.08;20.77;;;;;;;2.44;99.49;100191.29;1804925;78;21030;-74
2020/12/30 06:30:48;;;;;;;38.67;22.25;;;;;;;2.44;99.67;100187.44;1824731;78;20987;-76
2020/12/30 06:33:24;;;;;;;36.35;24.02;;;;;;;2.44;99.80;100192.58;1811625;77;20927;-74
2020/12/30 06:35:56;;;;;;;28.23;18.48;;;;;;;2.44;99.88;100200.28;1803938;78;21165;-72
2020/12/30 06:38:30;;;;;;;32.80;21.20;;;;;;;2.44;100.00;100199.44;1823802;77;21300;-71
2020/12/30 06:41:04;;;;;;;26.23;18.92;;;;;;;2.45;100.00;100198.56;1820626;78;20986;-74
2020/12/30 06:43:43;;;;;;;29.25;20.23;;;;;;;2.46;100.00;100201.10;1826484;78;21066;-73
2020/12/30 06:46:23;;;;;;;29.90;19.87;;;;;;;2.48;100.00;100211.34;1816038;77;21078;-74
2020/12/30 06:49:07;;;;;;;34.43;23.22;;;;;;;2.50;100.00;100208.31;1800786;77;21097;-70
2020/12/30 06:51:43;;;;;;;37.33;25.95;;;;;;;2.47;100.00;100201.51;1808603;78;21203;-72
2020/12/30 06:54:11;;;;;;;30.23;20.08;;;;;;;2.45;100.00;100198.56;1785610;78;21027;-67
2020/12/30 06:56:41;;;;;;;28.60;18.57;;;;;;;2.43;100.00;100188.31;1794189;78;20947;-70
2020/12/30 06:59:15;;;;;;;33.75;20.08;;;;;;;2.38;100.00;100180.31;1802970;78;21066;-73
2020/12/30 07:01:58;;;;;;;31.25;20.27;;;;;;;2.33;100.00;100182.98;1794788;78;21041;-73
2020/12/30 07:04:31;;;;;;;37.10;24.92;;;;;;;2.30;100.00;100180.03;1801220;78;21195;-73
2020/12/30 07:07:01;;;;;;;41.45;27.70;;;;;;;2.29;100.00;100187.33;1786731;77;21674;-69
2020/12/30 07:09:37;;;;;;;42.08;30.77;;;;;;;2.29;100.00;100180.05;1786983;78;20896;-68
2020/12/30 07:12:07;;;;;;;33.90;24.02;;;;;;;2.28;100.00;100177.92;1788511;78;21545;-69
2020/12/30 07:14:37;;;;;;;67.97;43.92;;;;;;;2.28;100.00;100187.36;1789976;78;21038;-69
2020/12/30 07:17:09;;;;;;;63.23;36.85;;;;;;;2.30;100.00;100198.45;1794942;78;21191;-69
2020/12/30 07:19:40;;;;;;;41.98;26.55;;;;;;;2.28;100.00;100206.19;1795426;78;21035;-68
2020/12/30 07:22:11;;;;;;;42.13;25.12;;;;;;;2.28;100.00;100197.63;1804508;78;20999;-71
2020/12/30 07:24:53;;;;;;;65.30;33.42;;;;;;;2.27;100.00;100198.08;1795341;78;21027;-71
2020/12/30 07:27:24;;;;;;;74.32;36.88;;;;;;;2.28;100.00;100198.92;1800058;77;21397;-74
2020/12/30 07:29:53;;;;;;;51.33;26.00;;;;;;;2.26;100.00;100196.37;1805966;77;22145;-67
2020/12/30 07:32:21;;;;;;;66.72;34.18;;;;;;;2.25;100.00;100198.54;1797344;78;21596;-67
2020/12/30 07:34:52;;;;;;;77.03;45.30;;;;;;;2.23;100.00;100195.16;1794574;78;20972;-69
2020/12/30 07:37:21;;;;;;;97.95;62.58;;;;;;;2.21;100.00;100194.34;1794523;78;21042;-68
2020/12/30 07:39:49;;;;;;;68.78;43.35;;;;;;;2.21;100.00;100196.06;1794351;78;21019;-71
2020/12/30 07:42:27;;;;;;;62.23;41.23;;;;;;;2.21;100.00;100211.47;1788951;78;21639;-69
2020/12/30 07:44:57;;;;;;;55.03;37.08;;;;;;;2.20;100.00;100209.34;1800607;77;21007;-66
2020/12/30 07:47:27;;;;;;;77.82;46.90;;;;;;;2.21;100.00;100212.76;1801399;78;21058;-66
2020/12/30 07:50:02;;;;;;;50.52;29.63;;;;;;;2.22;100.00;100211.44;1807887;78;20952;-67
2020/12/30 07:52:32;;;;;;;46.73;26.40;;;;;;;2.23;100.00;100211.85;1786354;78;21647;-75
2020/12/30 07:55:00;;;;;;;45.12;26.35;;;;;;;2.27;100.00;100207.50;1787632;78;21695;-71
2020/12/30 07:57:29;;;;;;;41.95;26.48;;;;;;;2.29;100.00;100204.03;1794114;78;20944;-72
2020/12/30 07:59:59;;;;;;;48.87;30.60;;;;;;;2.31;100.00;100202.28;1797737;77;21548;-72
2020/12/30 08:02:31;;;;;;;55.52;32.75;;;;;;;2.32;100.00;100188.98;1796201;78;20995;-77
2020/12/30 08:05:01;;;;;;;40.12;24.82;;;;;;;2.31;100.00;100200.14;1800624;76;21002;-72
2020/12/30 08:07:31;;;;;;;53.83;29.42;;;;;;;2.31;100.00;100198.42;1808072;77;22010;-70
2020/12/30 08:10:00;;;;;;;45.90;28.47;;;;;;;2.31;100.00;100202.72;1795876;78;21058;-73
2020/12/30 08:12:28;;;;;;;45.10;28.80;;;;;;;2.30;100.00;100199.30;1821345;78;21615;-71
2020/12/30 08:14:57;;;;;;;49.45;30.57;;;;;;;2.32;100.00;100205.69;1821814;78;20944;-69
2020/12/30 08:17:25;;;;;;;41.10;25.90;;;;;;;2.36;100.00;100206.48;1808727;78;21216;-74
2020/12/30 08:19:55;;;;;;;43.20;26.27;;;;;;;2.38;100.00;100203.00;1815891;78;21184;-72
2020/12/30 08:22:27;;;;;;;40.28;24.50;;;;;;;2.39;100.00;100206.42;1819032;78;21041;-68
2020/12/30 08:24:58;;;;;;;32.88;21.55;;;;;;;2.42;100.00;100208.90;1802629;78;21620;-69
2020/12/30 08:27:30;;;;;;;34.73;20.57;;;;;;;2.45;100.00;100203.70;1793305;78;21068;-75
2020/12/30 08:30:03;;;;;;;55.73;29.02;;;;;;;2.49;100.00;100204.05;1793787;78;20979;-68
2020/12/30 08:32:38;;;;;;;43.30;25.10;;;;;;;2.51;100.00;100212.58;1798080;78;21184;-74
2020/12/30 08:35:21;;;;;;;50.10;28.40;;;;;;;2.55;100.00;100206.50;1794969;78;21576;-70
2020/12/30 08:38:04;;;;;;;48.92;29.23;;;;;;;2.56;100.00;100210.77;1773892;80;20945;-69
2020/12/30 08:40:34;;;;;;;46.10;28.23;;;;;;;2.54;100.00;100209.51;1773658;78;20975;-67
2020/12/30 08:43:24;;;;;;;52.38;27.62;;;;;;;2.50;100.00;100207.88;1785788;80;21083;-69
2020/12/30 08:45:58;;;;;;;50.25;27.85;;;;;;;2.50;100.00;100207.03;1781213;78;21801;-65
2020/12/30 08:48:27;;;;;;;37.05;22.35;;;;;;;2.52;100.00;100208.69;1804926;78;21547;-73
2020/12/30 08:50:55;;;;;;;44.20;27.17;;;;;;;2.53;100.00;100202.67;1799017;78;21793;-71
2020/12/30 08:53:37;;;;;;;39.45;24.07;;;;;;;2.54;100.00;100208.66;1806681;78;21031;-70
2020/12/30 08:56:06;;;;;;;41.83;27.05;;;;;;;2.53;100.00;100206.97;1797827;78;21598;-65
2020/12/30 08:58:34;;;;;;;49.75;28.85;;;;;;;2.52;100.00;100205.27;1804897;78;21402;-67
2020/12/30 09:01:19;;;;;;;39.10;23.70;;;;;;;2.52;100.00;100200.98;1802920;78;22137;-75
2020/12/30 09:03:48;;;;;;;38.50;23.25;;;;;;;2.55;100.00;100197.50;1811618;77;21064;-70
2020/12/30 09:06:27;;;;;;;30.50;20.12;;;;;;;2.57;100.00;100188.88;1812508;77;20980;-73
2020/12/30 09:08:56;;;;;;;33.38;21.62;;;;;;;2.62;100.00;100181.08;1811621;77;21038;-67
2020/12/30 09:11:24;;;;;;;35.40;21.17;;;;;;;2.64;100.00;100180.16;1795685;78;21194;-73
2020/12/30 09:13:53;;;;;;;31.37;19.73;;;;;;;2.66;100.00;100178.41;1795658;78;21040;-69
2020/12/30 09:16:22;;;;;;;35.90;22.48;;;;;;;2.70;100.00;100169.34;1799332;78;21072;-70
2020/12/30 09:18:50;;;;;;;35.40;21.35;;;;;;;2.70;100.00;100168.91;1818229;78;21046;-68
2020/12/30 09:21:27;;;;;;;33.55;21.17;;;;;;;2.71;100.00;100172.33;1799059;78;21637;-69
2020/12/30 09:23:56;;;;;;;32.90;19.98;;;;;;;2.73;100.00;100173.98;1794786;78;21188;-72
2020/12/30 09:26:29;;;;;;;45.38;28.47;;;;;;;2.73;100.00;100180.41;1811925;78;21030;-69
2020/12/30 09:28:57;;;;;;;38.85;24.98;;;;;;;2.71;100.00;100177.02;1805316;78;21015;-68
2020/12/30 09:31:26;;;;;;;40.45;24.43;;;;;;;2.71;100.00;100172.33;1807596;77;21042;-71
2020/12/30 09:33:55;;;;;;;39.00;25.05;;;;;;;2.71;100.00;100169.75;1794252;78;21674;-72
2020/12/30 09:36:23;;;;;;;37.90;25.77;;;;;;;2.72;100.00;100167.15;1808835;78;22544;-71
2020/12/30 09:38:55;;;;;;;32.48;21.37;;;;;;;2.71;100.00;100159.47;1794312;78;21683;-67
2020/12/30 09:41:23;;;;;;;28.83;19.65;;;;;;;2.68;100.00;100156.09;1806942;78;21026;-73
2020/12/30 09:43:52;;;;;;;30.75;20.57;;;;;;;2.68;100.00;100160.38;1796028;78;21219;-70
2020/12/30 09:46:22;;;;;;;28.30;19.57;;;;;;;2.66;100.00;100168.56;1807312;77;22079;-71
2020/12/30 09:48:50;;;;;;;26.42;17.98;;;;;;;2.65;100.00;100165.15;1795088;78;22175;-71
2020/12/30 09:51:18;;;;;;;30.10;19.92;;;;;;;2.66;100.00;100165.55;1812206;78;21591;-68
2020/12/30 09:53:51;;;;;;;25.60;18.10;;;;;;;2.66;100.00;100165.55;1808603;78;21556;-72
2020/12/30 09:56:20;;;;;;;29.85;19.80;;;;;;;2.68;100.00;100156.52;1801724;78;21039;-70
2020/12/30 09:58:48;;;;;;;27.48;19.15;;;;;;;2.70;100.00;100145.77;1797451;77;21061;-71
2020/12/30 10:01:23;;;;;;;26.20;18.62;;;;;;;2.71;100.00;100137.17;1770157;80;22034;-78
2020/12/30 10:03:51;;;;;;;23.12;16.73;;;;;;;2.71;100.00;100135.89;1766458;78;21035;-75
2020/12/30 10:06:20;;;;;;;28.90;18.23;;;;;;;2.73;100.00;100132.00;1802684;77;21021;-71
2020/12/30 10:08:49;;;;;;;23.10;17.25;;;;;;;2.73;100.00;100125.13;1814478;76;21062;-76
2020/12/30 10:11:22;;;;;;;25.62;17.70;;;;;;;2.77;100.00;100138.77;1809126;78;20942;-72
2020/12/30 10:13:51;;;;;;;27.60;18.98;;;;;;;2.78;100.00;100148.17;1790251;78;21130;-71
2020/12/30 10:16:20;;;;;;;25.52;16.52;;;;;;;2.75;100.00;100136.23;1821371;78;20991;-73
2020/12/30 10:18:49;;;;;;;25.82;17.27;;;;;;;2.71;100.00;100126.05;1825472;78;21022;-74
2020/12/30 10:21:17;;;;;;;22.07;16.42;;;;;;;2.68;100.00;100130.38;1832599;77;21294;-73
2020/12/30 10:23:47;;;;;;;22.75;16.17;;;;;;;2.70;100.00;100125.20;1794603;78;21161;-72
2020/12/30 10:26:15;;;;;;;25.05;16.45;;;;;;;2.70;100.00;100113.62;1794660;78;21194;-73
2020/12/30 10:28:44;;;;;;;25.45;17.73;;;;;;;2.70;100.00;100112.34;1825912;76;21019;-70
2020/12/30 10:31:14;;;;;;;25.72;17.23;;;;;;;2.66;100.00;100103.85;1807053;78;21058;-68
2020/12/30 10:33:42;;;;;;;27.22;18.35;;;;;;;2.64;100.00;100104.33;1794500;79;21054;-70
2020/12/30 10:36:10;;;;;;;24.25;17.30;;;;;;;2.62;100.00;100100.95;1838265;78;20983;-71
2020/12/30 10:38:40;;;;;;;28.55;19.12;;;;;;;2.64;100.00;100100.91;1825530;78;21353;-69
2020/12/30 10:41:13;;;;;;;24.67;16.77;;;;;;;2.62;100.00;100111.23;1828276;78;21029;-69
2020/12/30 10:43:42;;;;;;;26.33;18.45;;;;;;;2.63;100.00;100112.07;1788073;78;21168;-72
2020/12/30 10:46:14;;;;;;;28.50;19.32;;;;;;;2.63;100.00;100104.36;1830406;77;20967;-73
2020/12/30 10:48:47;;;;;;;24.77;16.77;;;;;;;2.62;100.00;100104.80;1785338;80;21663;-73
2020/12/30 10:51:17;;;;;;;25.40;17.30;;;;;;;2.62;100.00;100098.37;1825724;77;21671;-72
2020/12/30 10:53:45;;;;;;;27.77;19.30;;;;;;;2.62;100.00;100094.95;1801385;78;21085;-72
2020/12/30 10:56:14;;;;;;;27.75;18.65;;;;;;;2.61;100.00;100091.54;1761956;80;21105;-71
2020/12/30 10:58:43;;;;;;;28.32;18.40;;;;;;;2.61;100.00;100093.27;1771250;80;21623;-72
2020/12/30 11:01:13;;;;;;;30.37;20.25;;;;;;;2.61;100.00;100079.12;1758429;80;21628;-72
2020/12/30 11:03:41;;;;;;;26.87;18.75;;;;;;;2.59;100.00;100086.88;1760881;78;21264;-70
2020/12/30 11:06:10;;;;;;;26.12;17.57;;;;;;;2.60;100.00;100091.58;1769533;78;21032;-70
2020/12/30 11:08:38;;;;;;;25.62;17.90;;;;;;;2.60;100.00;100089.00;1776203;78;20998;-71
2020/12/30 11:11:06;;;;;;;27.05;18.65;;;;;;;2.59;100.00;100089.44;1807055;78;21584;-70
2020/12/30 11:13:35;;;;;;;31.50;22.45;;;;;;;2.60;100.00;100084.71;1828776;78;21041;-71
2020/12/30 11:16:04;;;;;;;26.20;18.85;;;;;;;2.62;100.00;100084.67;1812211;77;21358;-71
2020/12/30 11:18:32;;;;;;;25.27;17.07;;;;;;;2.64;100.00;100075.20;1835849;77;21045;-70
2020/12/30 11:21:02;;;;;;;27.73;19.90;;;;;;;2.64;100.00;100074.77;1841711;77;20983;-69
2020/12/30 11:23:31;;;;;;;28.47;18.87;;;;;;;2.64;100.00;100070.91;1843315;77;21184;-72